Kettle Falls, WA (99141)

9:50 AM PDT on August 21, 2014 (GMT -0700)
KWAKETTL2 | Change Station
CLOSE
Current Station
Personal Weather Station
Location: Kettle Falls, WA
Elevation: 1900 ft
Nearby Weather Stations

Elev 1900 ft 48.49 °N, 118.16 °W | Updated 43 seconds ago

Partly Cloudy
Partly Cloudy
63.5 °F
Feels Like 63.5 °F
N
4.5
Wind Variable Wind from NE
Gusts 6.5 mph

Today
High -- | Low -- °F
--% Chance of Precip.
Yesterday
High -- | Low -- °F
Precip. -- in
5:54 AM 7:55 PM
Waning Crescent, 13% visible
Pressure 29.98 in
Visibility 10.0 miles
Clouds Few 11000 ft
Dew Point 52 °F
Humidity 66%
Rainfall 0.00 in
Snow Depth Not available.
UV 3 out of 12
Pollen 5.60 out of 12
PM2.5 Good
Flu Activity Not available.
METAR KDEW 211553Z AUTO 06004KT 10SM FEW110 17/12 A3000 RMK AO2 SLP152 T01720122

More Conditions Fewer Conditions

Pressure 29.98 in
Visibility 10.0 miles
Clouds Few 11000 ft
Dew Point 52 °F
Humidity 66%
Rainfall 0.00 in
Snow Depth Not available.
UV 3 out of 12
Pollen 5.60 out of 12
PM2.5 Good
Flu Activity Not available.
METAR KDEW 211553Z AUTO 06004KT 10SM FEW110 17/12 A3000 RMK AO2 SLP152 T01720122

More Conditions Fewer Conditions

10-Day Weather Forecast

Almanac

Astronomy

Aug. 21, 2014 Rise Set
Actual Time 5:54 AM PDT 7:55 PM PDT
Civil Twilight 5:20 AM PDT 8:29 PM PDT
Nautical Twilight 4:38 AM PDT 9:11 PM PDT
Astronomical Twilight 3:50 AM PDT 9:57 PM PDT
Moon 2:20 AM PDT 5:34 PM PDT
Length of Visible Light 15h 09m
Length of Day
14h 01m
Tomorrow will be 3m 18s shorter.
Waning Crescent, 13% of the Moon is Illuminated
Today
Waning Crescent
Aug 25
New
Sep 2
First Quarter
Sep 8
Full
Sep 15
Last Quarter

Today's Extremes

State Highs State Lows

Community

WunderPhotos

Upload Photos

1,745,957 photos uploaded!

Nearby

Air Quality

  Air Quality AQ Index Pollutant
Yesterday Good
OZONE
Yesterday Good
PM10
Current Good
PM2.5
Thursday Good
PM10
Thursday Good
OZONE
Friday Good
PM10
Friday Good
OZONE

Snow Depth

Station Depth Elevation
Sentinel Butte 0 in 4920 ft
Bunchgrass Meadow 0 in 5000 ft
Moses Mountain 1 in 5300 ft
Quartz Peak 1 in 4700 ft
Harts Pass 0 in 6500 ft

Earthquake Activity

City Distance Mag. Time & Date
No recent earthquake activity has been reported nearby.
Minimum magnitude displayed is 2.5.

Coastal Water Temperatures

Place Temperature
No Stations Reporting

Nearby Weather Stations